createdAt,value
2019-01-24T00:00:33.777Z,-5.20
2019-01-24T00:03:03.218Z,-5.20
2019-01-24T00:05:31.775Z,-5.20
2019-01-24T00:07:59.615Z,-5.30
2019-01-24T00:10:28.642Z,-5.30
2019-01-24T00:12:57.501Z,-5.20
2019-01-24T00:15:25.276Z,-5.30
2019-01-24T00:17:51.731Z,-5.30
2019-01-24T00:20:18.366Z,-5.30
2019-01-24T00:22:44.838Z,-5.30
2019-01-24T00:25:17.618Z,-5.30
2019-01-24T00:27:46.431Z,-5.30
2019-01-24T00:30:14.678Z,-5.30
2019-01-24T00:32:41.417Z,-5.30
2019-01-24T00:35:09.021Z,-5.20
2019-01-24T00:37:35.860Z,-5.20
2019-01-24T00:40:06.086Z,-5.20
2019-01-24T00:42:32.822Z,-5.20
2019-01-24T00:45:00.702Z,-5.20
2019-01-24T00:47:28.645Z,-5.20
2019-01-24T00:49:55.646Z,-5.20
2019-01-24T00:52:22.114Z,-5.10
2019-01-24T00:54:49.674Z,-5.10
2019-01-24T00:57:16.257Z,-5.10
2019-01-24T00:59:43.868Z,-5.10
2019-01-24T01:02:10.446Z,-5.20
2019-01-24T01:04:38.283Z,-5.20
2019-01-24T01:07:10.341Z,-5.20
2019-01-24T01:09:37.041Z,-5.20
2019-01-24T01:12:04.264Z,-5.20
2019-01-24T01:14:31.765Z,-5.20
2019-01-24T01:16:58.457Z,-5.10
2019-01-24T01:19:25.295Z,-5.20
2019-01-24T01:21:51.850Z,-5.20
2019-01-24T01:24:18.547Z,-5.20
2019-01-24T01:26:45.240Z,-5.20
2019-01-24T01:29:13.799Z,-5.20
2019-01-24T01:31:42.687Z,-5.20
2019-01-24T01:34:09.553Z,-5.20
2019-01-24T01:36:36.411Z,-5.30
2019-01-24T01:39:05.575Z,-5.20
2019-01-24T01:41:32.429Z,-5.30
2019-01-24T01:43:59.183Z,-5.30
2019-01-24T01:46:25.751Z,-5.20
2019-01-24T01:48:58.420Z,-5.20
2019-01-24T01:51:29.479Z,-5.30
2019-01-24T01:53:58.336Z,-5.30
2019-01-24T01:56:24.936Z,-5.30
2019-01-24T01:58:51.762Z,-5.30
2019-01-24T02:01:18.389Z,-5.30
2019-01-24T02:03:46.214Z,-5.30
2019-01-24T02:06:13.045Z,-5.30
2019-01-24T02:08:45.583Z,-5.30
2019-01-24T02:11:15.823Z,-5.30
2019-01-24T02:13:43.583Z,-5.30
2019-01-24T02:16:12.430Z,-5.30
2019-01-24T02:18:40.194Z,-5.30
2019-01-24T02:21:08.806Z,-5.30
2019-01-24T02:23:35.285Z,-5.30
2019-01-24T02:26:01.742Z,-5.40
2019-01-24T02:28:40.670Z,-5.40
2019-01-24T02:31:07.321Z,-5.40
2019-01-24T02:33:34.916Z,-5.40
2019-01-24T02:36:02.947Z,-5.40
2019-01-24T02:38:30.472Z,-5.40
2019-01-24T02:41:04.320Z,-5.40
2019-01-24T02:43:30.810Z,-5.40
2019-01-24T02:45:57.666Z,-5.40
2019-01-24T02:48:25.664Z,-5.40
2019-01-24T02:50:52.140Z,-5.40
2019-01-24T02:53:18.949Z,-5.40
2019-01-24T02:55:50.771Z,-5.40
2019-01-24T02:58:17.429Z,-5.40
2019-01-24T03:00:43.975Z,-5.40
2019-01-24T03:03:11.851Z,-5.50
2019-01-24T03:05:47.563Z,-5.50
2019-01-24T03:08:14.047Z,-5.40
2019-01-24T03:10:40.609Z,-5.50
2019-01-24T03:13:08.792Z,-5.40
2019-01-24T03:15:35.768Z,-5.50
2019-01-24T03:18:03.753Z,-5.40
2019-01-24T03:20:36.344Z,-5.50
2019-01-24T03:23:04.319Z,-5.50
2019-01-24T03:25:31.413Z,-5.50
2019-01-24T03:27:59.432Z,-5.50
2019-01-24T03:30:26.089Z,-5.50
2019-01-24T03:32:53.631Z,-5.50
2019-01-24T03:35:25.533Z,-5.50
2019-01-24T03:37:53.510Z,-5.60
2019-01-24T03:40:20.600Z,-5.60
2019-01-24T03:42:47.490Z,-5.60
2019-01-24T03:45:15.979Z,-5.60
2019-01-24T03:47:42.892Z,-5.60
2019-01-24T03:50:15.645Z,-5.60
2019-01-24T03:52:42.296Z,-5.60
2019-01-24T03:55:12.932Z,-5.60
2019-01-24T03:57:39.591Z,-5.60
2019-01-24T04:00:13.708Z,-5.60
2019-01-24T04:02:42.172Z,-5.50
2019-01-24T04:05:11.929Z,-5.50
2019-01-24T04:07:38.029Z,-5.50
2019-01-24T04:10:11.348Z,-5.50
2019-01-24T04:12:39.258Z,-5.50
2019-01-24T04:15:09.295Z,-5.50
2019-01-24T04:17:35.935Z,-5.50
2019-01-24T04:20:07.576Z,-5.50
2019-01-24T04:22:38.559Z,-5.50
2019-01-24T04:25:06.912Z,-5.60
2019-01-24T04:27:40.458Z,-5.50
2019-01-24T04:30:14.261Z,-5.60
2019-01-24T04:32:41.893Z,-5.60
2019-01-24T04:35:09.859Z,-5.60
2019-01-24T04:37:38.855Z,-5.60
2019-01-24T04:40:10.603Z,-5.60
2019-01-24T04:42:38.609Z,-5.60
2019-01-24T04:45:08.679Z,-5.70
2019-01-24T04:47:36.303Z,-5.70
2019-01-24T04:50:06.662Z,-5.70
2019-01-24T04:52:33.508Z,-5.70
2019-01-24T04:55:00.034Z,-5.70
2019-01-24T04:57:26.955Z,-5.70
2019-01-24T04:59:53.479Z,-5.70
2019-01-24T05:02:20.339Z,-5.70
2019-01-24T05:04:47.144Z,-5.70
2019-01-24T05:07:14.032Z,-5.70
2019-01-24T05:09:40.811Z,-5.70
2019-01-24T05:12:07.331Z,-5.70
2019-01-24T05:14:35.220Z,-5.60
2019-01-24T05:17:02.784Z,-5.60
2019-01-24T05:19:31.620Z,-5.60
2019-01-24T05:21:58.428Z,-5.60
2019-01-24T05:24:25.267Z,-5.60
2019-01-24T05:26:51.845Z,-5.60
2019-01-24T05:29:24.364Z,-5.60
2019-01-24T05:31:52.252Z,-5.60
2019-01-24T05:34:19.241Z,-5.50
2019-01-24T05:36:48.136Z,-5.50
2019-01-24T05:39:16.083Z,-5.50
2019-01-24T05:41:44.684Z,-5.50
2019-01-24T05:44:11.452Z,-5.50
2019-01-24T05:46:38.195Z,-5.50
2019-01-24T05:49:08.410Z,-5.50
2019-01-24T05:51:42.050Z,-5.50
2019-01-24T05:54:09.863Z,-5.50
2019-01-24T05:56:37.675Z,-5.40
2019-01-24T05:59:04.541Z,-5.40
2019-01-24T06:01:36.417Z,-5.40
2019-01-24T06:04:03.818Z,-5.40
2019-01-24T06:06:31.396Z,-5.40
2019-01-24T06:09:05.468Z,-5.40
2019-01-24T06:11:33.495Z,-5.40
2019-01-24T06:14:02.076Z,-5.40
2019-01-24T06:16:29.912Z,-5.50
2019-01-24T06:18:57.747Z,-5.50
2019-01-24T06:21:25.679Z,-5.50
2019-01-24T06:23:59.907Z,-5.50
2019-01-24T06:26:35.491Z,-5.50
2019-01-24T06:29:04.213Z,-5.50
2019-01-24T06:31:30.903Z,-5.50
2019-01-24T06:33:57.809Z,-5.40
2019-01-24T06:36:26.399Z,-5.40
2019-01-24T06:38:53.236Z,-5.40
2019-01-24T06:41:20.083Z,-5.30
2019-01-24T06:43:46.877Z,-5.30
2019-01-24T06:46:13.436Z,-5.30
2019-01-24T06:48:41.104Z,-5.30
2019-01-24T06:51:07.765Z,-5.30
2019-01-24T06:53:34.697Z,-5.30
2019-01-24T06:56:01.453Z,-5.30
2019-01-24T06:58:28.407Z,-5.20
2019-01-24T07:00:59.949Z,-5.20
2019-01-24T07:03:28.679Z,-5.20
2019-01-24T07:05:56.570Z,-5.20
2019-01-24T07:08:23.255Z,-5.20
2019-01-24T07:10:52.300Z,-5.20
2019-01-24T07:13:19.159Z,-5.10
2019-01-24T07:15:46.816Z,-5.10
2019-01-24T07:18:16.644Z,-5.10
2019-01-24T07:20:44.367Z,-5.10
2019-01-24T07:23:12.299Z,-5.10
2019-01-24T07:25:40.135Z,-5.00
2019-01-24T07:28:08.760Z,-5.00
2019-01-24T07:30:35.487Z,-5.00
2019-01-24T07:33:02.411Z,-5.00
2019-01-24T07:35:31.614Z,-5.00
2019-01-24T07:37:59.704Z,-5.00
2019-01-24T07:40:26.393Z,-5.00
2019-01-24T07:42:55.191Z,-4.90
2019-01-24T07:45:25.560Z,-4.80
2019-01-24T07:47:56.949Z,-4.80
2019-01-24T07:50:24.643Z,-4.70
2019-01-24T07:52:57.195Z,-4.70
2019-01-24T07:55:24.171Z,-4.70
2019-01-24T07:57:50.611Z,-4.60
2019-01-24T08:00:21.031Z,-4.60
2019-01-24T08:02:49.823Z,-4.60
2019-01-24T08:05:17.840Z,-4.60
2019-01-24T08:07:45.593Z,-4.50
2019-01-24T08:10:17.324Z,-4.50
2019-01-24T08:12:45.381Z,-4.50
2019-01-24T08:15:15.480Z,-4.50
2019-01-24T08:17:42.267Z,-4.50
2019-01-24T08:20:15.409Z,-4.40
2019-01-24T08:22:43.363Z,-4.40
2019-01-24T08:25:11.736Z,-4.30
2019-01-24T08:27:39.343Z,-4.30
2019-01-24T08:30:20.647Z,-4.20
2019-01-24T08:32:48.421Z,-4.10
2019-01-24T08:35:15.495Z,-4.10
2019-01-24T08:37:42.064Z,-4.00
2019-01-24T08:40:11.617Z,-3.90
2019-01-24T08:42:38.444Z,-3.80
2019-01-24T08:45:08.052Z,-3.70
2019-01-24T08:47:35.646Z,-3.60
2019-01-24T08:50:06.224Z,-3.50
2019-01-24T08:52:35.071Z,-3.50
2019-01-24T08:55:10.707Z,-3.40
2019-01-24T08:57:38.595Z,-3.30
2019-01-24T09:00:17.823Z,-3.20
2019-01-24T09:02:45.811Z,-3.10
2019-01-24T09:05:12.540Z,-3.00
2019-01-24T09:07:42.872Z,-3.00
2019-01-24T09:10:16.680Z,-2.80
2019-01-24T09:12:44.536Z,-2.80
2019-01-24T09:15:12.616Z,-2.70
2019-01-24T09:17:39.559Z,-2.60
2019-01-24T09:20:10.469Z,-2.60
2019-01-24T09:22:40.679Z,-2.60
2019-01-24T09:25:09.558Z,-2.50
2019-01-24T09:27:36.253Z,-2.50
2019-01-24T09:30:18.134Z,-2.40
2019-01-24T09:32:45.002Z,-2.30
2019-01-24T09:35:12.447Z,-2.30
2019-01-24T09:37:40.387Z,-2.20
2019-01-24T09:40:13.335Z,-2.20
2019-01-24T09:42:40.444Z,-2.10
2019-01-24T09:45:10.575Z,-2.20
2019-01-24T09:47:37.653Z,-2.10
2019-01-24T09:50:09.064Z,-2.00
2019-01-24T09:52:40.461Z,-1.80
2019-01-24T09:55:08.776Z,-1.70
2019-01-24T09:57:35.709Z,-1.50
2019-01-24T10:00:17.496Z,-1.40
2019-01-24T10:02:45.225Z,-1.30
2019-01-24T10:05:12.015Z,-1.10
2019-01-24T10:07:39.931Z,-1.00
2019-01-24T10:10:15.486Z,-0.90
2019-01-24T10:12:46.692Z,-0.70
2019-01-24T10:15:15.939Z,-0.50
2019-01-24T10:17:46.900Z,-0.30
2019-01-24T10:20:19.720Z,0.00
2019-01-24T10:22:53.004Z,0.20
2019-01-24T10:25:23.636Z,0.60
2019-01-24T10:27:51.467Z,1.00
2019-01-24T10:30:22.237Z,1.40
2019-01-24T10:32:51.127Z,1.70
2019-01-24T10:35:26.431Z,2.00
2019-01-24T10:37:53.931Z,2.20
2019-01-24T10:40:25.523Z,2.40
2019-01-24T10:42:53.480Z,2.50
2019-01-24T10:45:21.623Z,2.50
2019-01-24T10:47:49.974Z,2.50
2019-01-24T10:50:18.601Z,2.50
2019-01-24T10:52:45.217Z,2.60
2019-01-24T10:55:14.892Z,2.60
2019-01-24T10:57:41.944Z,2.50
2019-01-24T11:00:12.503Z,2.30
2019-01-24T11:02:39.444Z,2.10
2019-01-24T11:05:10.121Z,2.00
2019-01-24T11:07:37.091Z,1.90
2019-01-24T11:10:06.332Z,1.70
2019-01-24T11:12:34.328Z,1.60
2019-01-24T11:15:05.668Z,1.40
2019-01-24T11:17:32.269Z,1.20
2019-01-24T11:19:59.116Z,1.10
2019-01-24T11:22:26.161Z,1.00
2019-01-24T11:24:53.069Z,0.90
2019-01-24T11:27:19.644Z,0.70
2019-01-24T11:29:47.300Z,0.50
2019-01-24T11:32:13.808Z,0.20
2019-01-24T11:34:41.403Z,0.00
2019-01-24T11:37:08.017Z,-0.10
2019-01-24T11:39:35.033Z,-0.10
2019-01-24T11:42:02.028Z,-0.20
2019-01-24T11:44:28.884Z,-0.20
2019-01-24T11:46:55.717Z,-0.10
2019-01-24T11:49:22.663Z,0.10
2019-01-24T11:51:50.597Z,0.30
2019-01-24T11:54:18.309Z,0.50
2019-01-24T11:56:44.925Z,0.70
2019-01-24T11:59:12.866Z,0.80
2019-01-24T12:01:40.042Z,0.90
2019-01-24T12:04:07.096Z,0.90
2019-01-24T12:06:35.010Z,0.70
2019-01-24T12:09:01.605Z,0.60
2019-01-24T12:11:28.233Z,0.50
2019-01-24T12:13:54.816Z,0.40
2019-01-24T12:16:21.359Z,0.30
2019-01-24T12:19:06.101Z,0.20
2019-01-24T12:21:33.015Z,0.00
2019-01-24T12:24:01.635Z,-0.20
2019-01-24T12:26:28.570Z,-0.30
2019-01-24T12:28:56.175Z,-0.30
2019-01-24T12:31:24.288Z,-0.40
2019-01-24T12:33:55.724Z,-0.60
2019-01-24T12:36:23.292Z,-0.80
2019-01-24T12:38:51.241Z,-0.90
2019-01-24T12:41:17.868Z,-1.00
2019-01-24T12:43:45.764Z,-1.00
2019-01-24T12:46:12.321Z,-1.10
2019-01-24T12:48:40.226Z,-1.20
2019-01-24T12:51:07.287Z,-1.20
2019-01-24T12:53:35.229Z,-1.30
2019-01-24T12:56:03.467Z,-1.30
2019-01-24T12:58:32.168Z,-1.40
2019-01-24T13:01:00.992Z,-1.50
2019-01-24T13:03:29.605Z,-1.50
2019-01-24T13:05:56.530Z,-1.50
2019-01-24T13:08:28.516Z,-1.50
2019-01-24T13:10:56.423Z,-1.50
2019-01-24T13:13:26.832Z,-1.50
2019-01-24T13:15:54.785Z,-1.50
2019-01-24T13:18:21.421Z,-1.50
2019-01-24T13:20:49.430Z,-1.40
2019-01-24T13:23:16.513Z,-1.40
2019-01-24T13:25:45.108Z,-1.50
2019-01-24T13:28:16.361Z,-1.50
2019-01-24T13:30:48.516Z,-1.50
2019-01-24T13:33:16.401Z,-1.50
2019-01-24T13:35:44.948Z,-1.50
2019-01-24T13:38:11.935Z,-1.60
2019-01-24T13:40:38.672Z,-1.60
2019-01-24T13:43:05.769Z,-1.60
2019-01-24T13:45:34.759Z,-1.60
2019-01-24T13:48:03.941Z,-1.70
2019-01-24T13:50:30.645Z,-1.60
2019-01-24T13:52:57.253Z,-1.60
2019-01-24T13:55:25.327Z,-1.70
2019-01-24T13:57:53.097Z,-1.70
2019-01-24T14:00:24.041Z,-1.80
2019-01-24T14:02:55.892Z,-1.90
2019-01-24T14:05:22.562Z,-1.90
2019-01-24T14:07:54.032Z,-2.10
2019-01-24T14:10:20.757Z,-2.10
2019-01-24T14:12:53.264Z,-2.10
2019-01-24T14:15:20.977Z,-2.10
2019-01-24T14:17:50.067Z,-2.10
2019-01-24T14:20:18.257Z,-2.20
2019-01-24T14:22:46.617Z,-2.20
2019-01-24T14:25:16.051Z,-2.20
2019-01-24T14:27:44.188Z,-2.20
2019-01-24T14:30:17.012Z,-2.30
2019-01-24T14:32:44.135Z,-2.30
2019-01-24T14:35:13.516Z,-2.30
2019-01-24T14:37:42.129Z,-2.20
2019-01-24T14:40:17.187Z,-2.20
2019-01-24T14:42:45.403Z,-2.20
2019-01-24T14:45:22.427Z,-2.20
2019-01-24T14:47:50.277Z,-2.20
2019-01-24T14:50:23.923Z,-2.20
2019-01-24T14:52:52.877Z,-2.20
2019-01-24T14:55:25.339Z,-2.30
2019-01-24T14:57:52.614Z,-2.40
2019-01-24T15:00:26.396Z,-2.50
2019-01-24T15:02:54.992Z,-2.60
2019-01-24T15:05:23.479Z,-2.70
2019-01-24T15:07:59.660Z,-2.80
2019-01-24T15:10:32.601Z,-2.90
2019-01-24T15:13:01.932Z,-3.00
2019-01-24T15:16:17.247Z,-3.00
2019-01-24T15:18:03.402Z,-3.10
2019-01-24T15:20:32.050Z,-3.10
2019-01-24T15:23:05.861Z,-3.20
2019-01-24T15:25:34.465Z,-3.20
2019-01-24T15:28:02.489Z,-3.30
2019-01-24T15:30:30.165Z,-3.30
2019-01-24T15:32:57.224Z,-3.40
2019-01-24T15:35:29.600Z,-3.40
2019-01-24T15:38:03.663Z,-3.40
2019-01-24T15:40:33.296Z,-3.40
2019-01-24T15:43:01.996Z,-3.40
2019-01-24T15:45:30.854Z,-3.40
2019-01-24T15:48:03.663Z,-3.40
2019-01-24T15:51:28.235Z,-3.40
2019-01-24T15:53:57.151Z,-3.40
2019-01-24T15:56:24.078Z,-3.50
2019-01-24T15:58:52.182Z,-3.50
2019-01-24T16:01:18.879Z,-3.50
2019-01-24T16:03:46.554Z,-3.50
2019-01-24T16:06:14.066Z,-3.50
2019-01-24T16:08:42.032Z,-3.50
2019-01-24T16:11:12.273Z,-3.50
2019-01-24T16:13:40.035Z,-3.50
2019-01-24T16:16:08.006Z,-3.60
2019-01-24T16:18:40.061Z,-3.60
2019-01-24T16:21:08.035Z,-3.60
2019-01-24T16:23:34.974Z,-3.70
2019-01-24T16:26:01.826Z,-3.70
2019-01-24T16:28:30.762Z,-3.70
2019-01-24T16:30:59.269Z,-3.70
2019-01-24T16:33:26.246Z,-3.80
2019-01-24T16:35:53.048Z,-3.70
2019-01-24T16:38:20.964Z,-3.80
2019-01-24T16:40:47.826Z,-3.80
2019-01-24T16:43:14.795Z,-3.80
2019-01-24T16:45:46.509Z,-3.80
2019-01-24T16:48:14.559Z,-3.80
2019-01-24T16:50:44.831Z,-3.80
2019-01-24T16:53:14.728Z,-3.80
2019-01-24T16:55:42.503Z,-3.80
2019-01-24T16:58:10.250Z,-3.80
2019-01-24T17:00:43.554Z,-3.80
2019-01-24T17:03:10.213Z,-3.80
2019-01-24T17:05:38.041Z,-3.80
2019-01-24T17:08:16.556Z,-3.80
2019-01-24T17:10:41.151Z,-3.80
2019-01-24T17:13:10.054Z,-3.80
2019-01-24T17:15:37.704Z,-3.80
2019-01-24T17:18:07.854Z,-3.80
2019-01-24T17:20:35.649Z,-3.80
2019-01-24T17:23:03.727Z,-3.80
2019-01-24T17:25:32.143Z,-3.70
2019-01-24T17:28:00.701Z,-3.70
2019-01-24T17:30:29.399Z,-3.70
2019-01-24T17:32:57.447Z,-3.70
2019-01-24T17:35:25.379Z,-3.70
2019-01-24T17:37:52.397Z,-3.70
2019-01-24T17:40:22.551Z,-3.80
2019-01-24T17:42:49.552Z,-3.80
2019-01-24T17:45:18.951Z,-3.90
2019-01-24T17:47:45.859Z,-3.90
2019-01-24T17:50:17.740Z,-4.00
2019-01-24T17:52:51.556Z,-4.00
2019-01-24T17:55:23.590Z,-4.00
2019-01-24T17:57:50.719Z,-4.00
2019-01-24T18:00:21.014Z,-3.90
2019-01-24T18:02:47.568Z,-3.90
2019-01-24T18:05:16.741Z,-3.90
2019-01-24T18:07:44.340Z,-3.90
2019-01-24T18:10:24.402Z,-4.00
2019-01-24T18:12:51.673Z,-4.00
2019-01-24T18:15:26.096Z,-4.00
2019-01-24T18:17:53.243Z,-4.10
2019-01-24T18:20:30.039Z,-4.10
2019-01-24T18:22:59.279Z,-4.10
2019-01-24T18:25:28.286Z,-4.10
2019-01-24T18:27:57.078Z,-4.20
2019-01-24T18:30:27.307Z,-4.20
2019-01-24T18:32:56.555Z,-4.20
2019-01-24T18:35:25.551Z,-4.20
2019-01-24T18:37:54.470Z,-4.20
2019-01-24T18:40:26.642Z,-4.20
2019-01-24T18:42:59.064Z,-4.20
2019-01-24T18:45:32.554Z,-4.20
2019-01-24T18:47:59.050Z,-4.20
2019-01-24T18:50:29.529Z,-4.20
2019-01-24T18:52:56.073Z,-4.20
2019-01-24T18:55:25.879Z,-4.30
2019-01-24T18:57:52.634Z,-4.30
2019-01-24T19:00:24.433Z,-4.30
2019-01-24T19:02:52.050Z,-4.30
2019-01-24T19:05:18.726Z,-4.40
2019-01-24T19:07:47.455Z,-4.40
2019-01-24T19:10:17.617Z,-4.40
2019-01-24T19:12:44.618Z,-4.40
2019-01-24T19:15:15.872Z,-4.40
2019-01-24T19:17:43.676Z,-4.50
2019-01-24T19:20:12.755Z,-4.50
2019-01-24T19:22:40.315Z,-4.50
2019-01-24T19:25:10.981Z,-4.60
2019-01-24T19:27:37.852Z,-4.60
2019-01-24T19:30:17.826Z,-4.60
2019-01-24T19:32:45.966Z,-4.60
2019-01-24T19:35:13.876Z,-4.60
2019-01-24T19:37:41.822Z,-4.60
2019-01-24T19:40:12.993Z,-4.70
2019-01-24T19:42:40.863Z,-4.70
2019-01-24T19:45:11.323Z,-4.70
2019-01-24T19:47:38.258Z,-4.70
2019-01-24T19:50:08.895Z,-4.70
2019-01-24T19:52:37.773Z,-4.80
2019-01-24T19:55:10.000Z,-4.80
2019-01-24T19:57:45.994Z,-4.80
2019-01-24T20:00:21.011Z,-4.80
2019-01-24T20:02:48.094Z,-4.80
2019-01-24T20:05:17.937Z,-4.70
2019-01-24T20:07:44.606Z,-4.70
2019-01-24T20:10:14.518Z,-4.70
2019-01-24T20:12:42.535Z,-4.70
2019-01-24T20:15:13.428Z,-4.70
2019-01-24T20:17:40.288Z,-4.80
2019-01-24T20:20:14.354Z,-4.80
2019-01-24T20:22:41.731Z,-4.70
2019-01-24T20:25:13.648Z,-4.80
2019-01-24T20:27:40.396Z,-4.80
2019-01-24T20:30:16.146Z,-4.70
2019-01-24T20:32:43.236Z,-4.70
2019-01-24T20:35:14.592Z,-4.70
2019-01-24T20:37:45.125Z,-4.70
2019-01-24T20:40:14.772Z,-4.70
2019-01-24T20:42:42.762Z,-4.70
2019-01-24T20:45:11.354Z,-4.70
2019-01-24T20:47:38.099Z,-4.70
2019-01-24T20:50:08.747Z,-4.70
2019-01-24T20:52:36.596Z,-4.70
2019-01-24T20:55:06.958Z,-4.80
2019-01-24T20:57:37.218Z,-4.80
2019-01-24T21:00:14.281Z,-4.80
2019-01-24T21:02:42.009Z,-4.80
2019-01-24T21:05:10.947Z,-4.80
2019-01-24T21:07:39.791Z,-4.80
2019-01-24T21:10:14.154Z,-4.80
2019-01-24T21:12:40.811Z,-4.80
2019-01-24T21:15:11.172Z,-4.80
2019-01-24T21:17:37.974Z,-4.80
2019-01-24T21:20:09.147Z,-4.80
2019-01-24T21:22:38.020Z,-4.80
2019-01-24T21:25:08.279Z,-4.80
2019-01-24T21:27:35.131Z,-4.80
2019-01-24T21:30:10.116Z,-4.80
2019-01-24T21:32:37.842Z,-4.80
2019-01-24T21:35:06.891Z,-4.80
2019-01-24T21:37:33.711Z,-4.80
2019-01-24T21:40:01.694Z,-4.80
2019-01-24T21:42:28.255Z,-4.80
2019-01-24T21:44:56.038Z,-4.80
2019-01-24T21:47:27.846Z,-4.80
2019-01-24T21:49:54.665Z,-4.80
2019-01-24T21:52:22.262Z,-4.80
2019-01-24T21:54:52.442Z,-4.70
2019-01-24T21:57:20.271Z,-4.70
2019-01-24T21:59:47.914Z,-4.80
2019-01-24T22:02:15.799Z,-4.70
2019-01-24T22:04:44.332Z,-4.80
2019-01-24T22:07:13.314Z,-4.80
2019-01-24T22:09:42.032Z,-4.80
2019-01-24T22:12:08.988Z,-4.70
2019-01-24T22:14:37.488Z,-4.70
2019-01-24T22:17:04.435Z,-4.70
2019-01-24T22:19:31.455Z,-4.70
2019-01-24T22:21:58.192Z,-4.70
2019-01-24T22:24:26.052Z,-4.70
2019-01-24T22:26:53.608Z,-4.80
2019-01-24T22:29:20.498Z,-4.80
2019-01-24T22:31:48.118Z,-4.80
2019-01-24T22:34:14.672Z,-4.80
2019-01-24T22:36:46.211Z,-4.80
2019-01-24T22:39:13.781Z,-4.70
2019-01-24T22:41:40.731Z,-4.70
2019-01-24T22:44:07.765Z,-4.70
2019-01-24T22:46:35.630Z,-4.70
2019-01-24T22:49:03.583Z,-4.70
2019-01-24T22:51:30.398Z,-4.70
2019-01-24T22:53:57.159Z,-4.80
2019-01-24T22:56:24.126Z,-4.80
2019-01-24T22:58:52.052Z,-4.80
2019-01-24T23:01:26.644Z,-4.80
2019-01-24T23:03:53.849Z,-4.80
2019-01-24T23:06:20.915Z,-4.80
2019-01-24T23:08:48.789Z,-4.80
2019-01-24T23:11:15.355Z,-4.80
2019-01-24T23:13:43.255Z,-4.80
2019-01-24T23:16:09.994Z,-4.80
2019-01-24T23:18:36.631Z,-4.80
2019-01-24T23:21:04.562Z,-4.80
2019-01-24T23:23:31.270Z,-4.80
2019-01-24T23:25:58.026Z,-4.80
2019-01-24T23:28:34.655Z,-4.80
2019-01-24T23:31:01.307Z,-4.80
2019-01-24T23:33:27.918Z,-4.90
2019-01-24T23:35:54.477Z,-4.90
2019-01-24T23:38:22.298Z,-4.90
2019-01-24T23:40:50.091Z,-4.90
2019-01-24T23:43:16.554Z,-4.90
2019-01-24T23:45:43.458Z,-4.90
2019-01-24T23:48:22.074Z,-4.90
2019-01-24T23:50:48.939Z,-4.90
2019-01-24T23:53:15.423Z,-4.90
2019-01-24T23:55:42.011Z,-4.90
2019-01-24T23:58:09.903Z,-4.90
